createdAt,value
2023-05-14T00:01:54.348Z,100924.52
2023-05-14T00:04:06.952Z,100918.36
2023-05-14T00:06:21.316Z,100919.56
2023-05-14T00:08:32.017Z,100923
2023-05-14T00:10:44.835Z,100922.83
2023-05-14T00:12:55.337Z,100923.33
2023-05-14T00:15:07.815Z,100920.33
2023-05-14T00:17:18.794Z,100917.13
2023-05-14T00:19:30.494Z,100919.52
2023-05-14T00:21:43.160Z,100916.38
2023-05-14T00:23:54.216Z,100914.44
2023-05-14T00:26:05.194Z,100913.35
2023-05-14T00:28:17.274Z,100910.05
2023-05-14T00:30:28.861Z,100911.72
2023-05-14T00:32:41.139Z,100913.79
2023-05-14T00:34:53.918Z,100909.98
2023-05-14T00:37:05.232Z,100911.22
2023-05-14T00:39:16.705Z,100910.09
2023-05-14T00:41:27.542Z,100910.16
2023-05-14T00:43:38.526Z,100914.63
2023-05-14T00:45:51.321Z,100914.92
2023-05-14T00:48:03.573Z,100910.92
2023-05-14T00:50:14.306Z,100911.38
2023-05-14T00:52:25.175Z,100911.3
2023-05-14T00:54:37.565Z,100914.19
2023-05-14T00:56:52.596Z,100916
2023-05-14T00:59:14.827Z,100916.42
2023-05-14T01:01:27.097Z,100916.91
2023-05-14T01:03:39.275Z,100919.28
2023-05-14T01:05:51.613Z,100916.77
2023-05-14T01:08:02.777Z,100916.42
2023-05-14T01:10:13.435Z,100916.92
2023-05-14T01:12:24.922Z,100917.55
2023-05-14T01:14:36.577Z,100916.41
2023-05-14T01:16:49.025Z,100910.74
2023-05-14T01:19:01.315Z,100914.13
2023-05-14T01:21:14.174Z,100912.69
2023-05-14T01:23:25.867Z,100911.39
2023-05-14T01:25:39.276Z,100911.2
2023-05-14T01:27:53.458Z,100912.79
2023-05-14T01:30:08.757Z,100907.27
2023-05-14T01:32:20.363Z,100912.13
2023-05-14T01:34:31.481Z,100908.11
2023-05-14T01:36:44.844Z,100907.42
2023-05-14T01:39:10.293Z,100907.81
2023-05-14T01:41:22.858Z,100900.83
2023-05-14T01:43:33.378Z,100902.16
2023-05-14T01:45:45.027Z,100902.92
2023-05-14T01:47:58.950Z,100898.89
2023-05-14T01:50:11.134Z,100897.47
2023-05-14T01:52:22.648Z,100899.58
2023-05-14T01:54:35.303Z,100894.86
2023-05-14T01:56:47.397Z,100895.27
2023-05-14T01:58:58.434Z,100893.34
2023-05-14T02:01:13.618Z,100893.7
2023-05-14T02:03:24.613Z,100894.06
2023-05-14T02:05:36.194Z,100894.27
2023-05-14T02:07:48.774Z,100896.91
2023-05-14T02:10:02.490Z,100898.53
2023-05-14T02:12:14.335Z,100899.39
2023-05-14T02:14:26.490Z,100902.19
2023-05-14T02:16:37.581Z,100893.06
2023-05-14T02:18:50.003Z,100895.73
2023-05-14T02:21:01.678Z,100900.63
2023-05-14T02:23:14.173Z,100896.05
2023-05-14T02:25:28.833Z,100891.82
2023-05-14T02:27:41.153Z,100895.06
2023-05-14T02:29:53.743Z,100895.19
2023-05-14T02:32:08.236Z,100893.9
2023-05-14T02:34:19.155Z,100892.73
2023-05-14T02:36:30.658Z,100890.05
2023-05-14T02:38:41.757Z,100887.95
2023-05-14T02:40:53.443Z,100887.96
2023-05-14T02:43:05.020Z,100885.87
2023-05-14T02:45:16.833Z,100884.22
2023-05-14T02:47:27.853Z,100885.14
2023-05-14T02:49:39.659Z,100883.6
2023-05-14T02:51:55.194Z,100880.27
2023-05-14T02:54:08.315Z,100882.34
2023-05-14T02:56:20.538Z,100883.29
2023-05-14T02:58:33.896Z,100877.11
2023-05-14T03:00:46.683Z,100873.51
2023-05-14T03:03:01.212Z,100874.27
2023-05-14T03:05:16.756Z,100880.22
2023-05-14T03:07:28.559Z,100876.28
2023-05-14T03:09:41.155Z,100875.97
2023-05-14T03:11:52.590Z,100877.92
2023-05-14T03:14:04.774Z,100877.69
2023-05-14T03:16:16.639Z,100876.34
2023-05-14T03:18:30.849Z,100874.76
2023-05-14T03:20:43.596Z,100873.31
2023-05-14T03:22:56.314Z,100873.31
2023-05-14T03:25:09.574Z,100874.05
2023-05-14T03:27:21.074Z,100869.52
2023-05-14T03:29:33.275Z,100870.64
2023-05-14T03:31:45.336Z,100864.58
2023-05-14T03:33:57.539Z,100864.31
2023-05-14T03:36:12.215Z,100863.41
2023-05-14T03:38:24.417Z,100863.79
2023-05-14T03:40:37.264Z,100862.98
2023-05-14T03:42:48.760Z,100860.84
2023-05-14T03:45:01.133Z,100856.23
2023-05-14T03:47:15.301Z,100856.36
2023-05-14T03:49:26.877Z,100858.1
2023-05-14T03:51:38.277Z,100860.76
2023-05-14T03:53:53.334Z,100861.63
2023-05-14T03:56:07.755Z,100867.25
2023-05-14T03:58:20.438Z,100866.2
2023-05-14T04:00:34.200Z,100867.06
2023-05-14T04:02:47.821Z,100867.44
2023-05-14T04:04:59.858Z,100864.13
2023-05-14T04:07:13.378Z,100862.64
2023-05-14T04:09:24.965Z,100864.32
2023-05-14T04:11:37.577Z,100860.27
2023-05-14T04:13:49.833Z,100858.19
2023-05-14T04:16:01.922Z,100857.63
2023-05-14T04:18:14.918Z,100861.09
2023-05-14T04:20:29.531Z,100865.77
2023-05-14T04:22:43.059Z,100864.23
2023-05-14T04:24:55.355Z,100867.86
2023-05-14T04:27:08.701Z,100866.78
2023-05-14T04:29:21.683Z,100866.14
2023-05-14T04:31:35.045Z,100865.59
2023-05-14T04:33:47.194Z,100868.19
2023-05-14T04:35:59.764Z,100870.73
2023-05-14T04:38:12.373Z,100871.63
2023-05-14T04:40:25.113Z,100870.73
2023-05-14T04:42:39.159Z,100870.91
2023-05-14T04:44:51.686Z,100868.67
2023-05-14T04:47:05.847Z,100867.3
2023-05-14T04:49:19.195Z,100872.39
2023-05-14T04:51:32.170Z,100870.67
2023-05-14T04:53:45.078Z,100871.13
2023-05-14T04:55:57.318Z,100868.22
2023-05-14T04:58:11.152Z,100865.68
2023-05-14T05:00:25.703Z,100863.17
2023-05-14T05:02:38.229Z,100858.18
2023-05-14T05:04:50.974Z,100857.94
2023-05-14T05:07:07.036Z,100857.22
2023-05-14T05:09:17.958Z,100855.36
2023-05-14T05:11:33.317Z,100857.47
2023-05-14T05:13:46.254Z,100854.74
2023-05-14T05:15:58.757Z,100852.22
2023-05-14T05:18:11.798Z,100847.69
2023-05-14T05:20:25.196Z,100847.66
2023-05-14T05:22:38.324Z,100845.08
2023-05-14T05:24:53.194Z,100840.25
2023-05-14T05:27:07.101Z,100845.7
2023-05-14T05:29:18.606Z,100845.89
2023-05-14T05:31:36.347Z,100846.52
2023-05-14T05:33:48.335Z,100845.83
2023-05-14T05:36:00.938Z,100841.04
2023-05-14T05:38:12.213Z,100845.8
2023-05-14T05:40:24.716Z,100839.82
2023-05-14T05:42:36.753Z,100842.66
2023-05-14T05:44:49.560Z,100840.09
2023-05-14T05:47:00.734Z,100844.53
2023-05-14T05:49:12.376Z,100839.76
2023-05-14T05:51:23.366Z,100835.98
2023-05-14T05:53:36.438Z,100836.36
2023-05-14T05:55:47.286Z,100837.62
2023-05-14T05:58:00.834Z,100835.76
2023-05-14T06:00:14.018Z,100836.97
2023-05-14T06:02:25.728Z,100837.98
2023-05-14T06:04:38.237Z,100830.33
2023-05-14T06:06:50.854Z,100827.93
2023-05-14T06:09:00.795Z,100832.38
2023-05-14T06:11:11.051Z,100828.11
2023-05-14T06:13:32.516Z,100824.3
2023-05-14T06:15:44.337Z,100830.09
2023-05-14T06:17:59.865Z,100832.71
2023-05-14T06:20:13.052Z,100827.31
2023-05-14T06:22:26.778Z,100825.78
2023-05-14T06:24:40.197Z,100824.59
2023-05-14T06:27:05.895Z,100824.75
2023-05-14T06:29:20.966Z,100824.58
2023-05-14T06:31:34.946Z,100829.45
2023-05-14T06:33:47.772Z,100826.27
2023-05-14T06:36:00.084Z,100825.37
2023-05-14T06:38:12.211Z,100824.01
2023-05-14T06:40:28.805Z,100825.11
2023-05-14T06:42:43.159Z,100817.84
2023-05-14T06:44:54.791Z,100818.38
2023-05-14T06:47:06.813Z,100811.16
2023-05-14T06:49:18.236Z,100804.28
2023-05-14T06:51:30.136Z,100801.03
2023-05-14T06:53:44.163Z,100801.21
2023-05-14T06:55:58.093Z,100795.98
2023-05-14T06:58:10.133Z,100798.81
2023-05-14T07:00:25.132Z,100796.08
2023-05-14T07:02:40.037Z,100796.14
2023-05-14T07:04:53.489Z,100793.78
2023-05-14T07:07:07.878Z,100793.75
2023-05-14T07:09:25.050Z,100794.43
2023-05-14T07:11:38.037Z,100795.45
2023-05-14T07:13:53.193Z,100793.17
2023-05-14T07:16:05.115Z,100787.8
2023-05-14T07:18:18.654Z,100791.17
2023-05-14T07:20:34.191Z,100792.2
2023-05-14T07:22:46.740Z,100786.46
2023-05-14T07:25:11.688Z,100788.64
2023-05-14T07:27:26.687Z,100788.25
2023-05-14T07:29:39.036Z,100790.72
2023-05-14T07:31:53.684Z,100790.2
2023-05-14T07:34:08.130Z,100786.79
2023-05-14T07:36:22.633Z,100787.13
2023-05-14T07:38:38.478Z,100784.2
2023-05-14T07:40:55.390Z,100786.69
2023-05-14T07:43:12.235Z,100774.8
2023-05-14T07:45:29.203Z,100779.64
2023-05-14T07:47:41.007Z,100773.2
2023-05-14T07:49:52.212Z,100767.5
2023-05-14T07:52:04.159Z,100768.03
2023-05-14T07:54:14.052Z,100759.45
2023-05-14T07:56:37.970Z,100763.41
2023-05-14T07:58:49.551Z,100761.6
2023-05-14T08:01:00.513Z,100763.77
2023-05-14T08:03:11.591Z,100759.91
2023-05-14T08:05:23.558Z,100759.7
2023-05-14T08:07:36.133Z,100754.38
2023-05-14T08:09:47.301Z,100745.76
2023-05-14T08:12:04.965Z,100750.47
2023-05-14T08:14:19.742Z,100745.77
2023-05-14T08:16:32.317Z,100743.79
2023-05-14T08:18:44.570Z,100748.36
2023-05-14T08:20:56.523Z,100734.91
2023-05-14T08:23:10.293Z,100744.48
2023-05-14T08:25:21.417Z,100737.31
2023-05-14T08:27:34.792Z,100736.22
2023-05-14T08:29:47.075Z,100730.05
2023-05-14T08:32:05.941Z,100729.03
2023-05-14T08:34:34.039Z,100725.53
2023-05-14T08:37:00.998Z,100723.13
2023-05-14T08:39:14.393Z,100722.89
2023-05-14T08:41:35.854Z,100717.56
2023-05-14T08:43:48.456Z,100715.34
2023-05-14T08:46:00.830Z,100721.3
2023-05-14T08:48:13.896Z,100716.5
2023-05-14T08:50:26.556Z,100716.21
2023-05-14T08:52:39.504Z,100722.69
2023-05-14T08:54:54.451Z,100723.78
2023-05-14T08:57:07.931Z,100723.9
2023-05-14T08:59:21.112Z,100727.04
2023-05-14T09:01:34.994Z,100724.06
2023-05-14T09:03:49.996Z,100716.86
2023-05-14T09:06:02.951Z,100710.34
2023-05-14T09:08:17.681Z,100712.36
2023-05-14T09:10:30.512Z,100719.02
2023-05-14T09:12:44.951Z,100717.69
2023-05-14T09:14:59.474Z,100710.11
2023-05-14T09:17:14.808Z,100706.5
2023-05-14T09:19:29.250Z,100711.02
2023-05-14T09:21:45.072Z,100713.36
2023-05-14T09:23:58.693Z,100707.5
2023-05-14T09:26:12.613Z,100706.67
2023-05-14T09:28:24.028Z,100706.37
2023-05-14T09:30:35.972Z,100701.77
2023-05-14T09:32:53.013Z,100698.26
2023-05-14T09:35:06.048Z,100701.63
2023-05-14T09:37:18.673Z,100701.05
2023-05-14T09:39:32.621Z,100701.95
2023-05-14T09:41:49.788Z,100698.28
2023-05-14T09:44:00.457Z,100699.05
2023-05-14T10:18:25.252Z,100677.45
2023-05-14T10:20:39.348Z,100656.81
2023-05-14T10:22:53.142Z,100663.64
2023-05-14T10:25:06.862Z,100663.09
2023-05-14T10:27:17.535Z,100661.25
2023-05-14T10:29:28.643Z,100660.2
2023-05-14T10:31:39.938Z,100647.95
2023-05-14T10:33:51.401Z,100652.65
2023-05-14T10:36:02.387Z,100649.61
2023-05-14T10:38:12.881Z,100638.31
2023-05-14T10:40:23.877Z,100636.59
2023-05-14T10:42:37.746Z,100625.42
2023-05-14T10:44:47.763Z,100615.65
2023-05-14T10:46:59.216Z,100610.48
2023-05-14T10:49:13.960Z,100603.34
2023-05-14T10:51:49.483Z,100608.09
2023-05-14T10:54:02.045Z,100596.11
2023-05-14T10:56:20.408Z,100590.68
2023-05-14T10:58:32.560Z,100583.49
2023-05-14T11:00:47.166Z,100579.61
2023-05-14T11:02:59.790Z,100573.85
2023-05-14T11:05:11.715Z,100576.16
2023-05-14T11:07:24.208Z,100583.8
2023-05-14T11:09:39.044Z,100593.48
2023-05-14T11:11:52.765Z,100583.69
2023-05-14T11:14:05.591Z,100593.09
2023-05-14T11:16:26.988Z,100576.71
2023-05-14T11:18:44.381Z,100575.73
2023-05-14T11:20:57.186Z,100571.72
2023-05-14T11:23:10.349Z,100554.66
2023-05-14T11:25:27.486Z,100550.13
2023-05-14T11:27:40.224Z,100547.2
2023-05-14T11:29:50.859Z,100546.8
2023-05-14T11:32:11.483Z,100547.29
2023-05-14T11:34:31.448Z,100532.55
2023-05-14T11:36:41.366Z,100541.66
2023-05-14T11:38:54.205Z,100531.8
2023-05-14T11:41:09.953Z,100543
2023-05-14T11:43:24.391Z,100532.48
2023-05-14T11:45:43.027Z,100517.91
2023-05-14T11:47:54.559Z,100520.53
2023-05-14T11:50:07.978Z,100521.17
2023-05-14T11:52:20.324Z,100516.86
2023-05-14T11:54:37.551Z,100514.7
2023-05-14T11:56:50.145Z,100521.42
2023-05-14T11:59:02.488Z,100509.45
2023-05-14T12:01:17.476Z,100511.27
2023-05-14T12:03:29.232Z,100505.22
2023-05-14T12:05:40.363Z,100495.63
2023-05-14T12:07:52.902Z,100480.27
2023-05-14T12:10:05.923Z,100492.95
2023-05-14T12:12:16.684Z,100487.72
2023-05-14T12:14:30.547Z,100481.53
2023-05-14T12:16:46.182Z,100480.65
2023-05-14T12:18:59.648Z,100486.16
2023-05-14T12:21:12.761Z,100481.2
2023-05-14T12:23:25.903Z,100482.28
2023-05-14T12:25:36.784Z,100478.38
2023-05-14T12:27:47.224Z,100478.42
2023-05-14T12:30:06.534Z,100480.66
2023-05-14T12:32:35.198Z,100454.33
2023-05-14T12:34:48.401Z,100467.4
2023-05-14T12:36:59.903Z,100469.36
2023-05-14T12:39:19.110Z,100466.57
2023-05-14T12:41:38.382Z,100462.42
2023-05-14T12:43:51.863Z,100447.3
2023-05-14T12:46:04.562Z,100456.8
2023-05-14T12:48:19.946Z,100455.14
2023-05-14T12:50:34.447Z,100448.52
2023-05-14T12:52:46.788Z,100437.97
2023-05-14T12:54:59.141Z,100446.36
2023-05-14T12:57:12.283Z,100448.16
2023-05-14T12:59:26.202Z,100455.48
2023-05-14T13:01:41.365Z,100453.84
2023-05-14T13:03:55.230Z,100438.04
2023-05-14T13:06:08.782Z,100441.73
2023-05-14T13:08:20.888Z,100449.38
2023-05-14T13:10:37.151Z,100442.26
2023-05-14T13:12:59.747Z,100439.59
2023-05-14T13:15:12.291Z,100436.42
2023-05-14T13:17:23.492Z,100430.34
2023-05-14T13:19:33.819Z,100434.88
2023-05-14T13:21:45.346Z,100437.72
2023-05-14T13:23:57.982Z,100422.06
2023-05-14T13:26:14.950Z,100421.19
2023-05-14T13:28:27.761Z,100407.94
2023-05-14T13:30:41.969Z,100417.91
2023-05-14T13:32:57.125Z,100412.19
2023-05-14T13:35:09.982Z,100401.3
2023-05-14T13:37:23.134Z,100416.45
2023-05-14T13:39:41.120Z,100415.16
2023-05-14T13:41:58.924Z,100411.87
2023-05-14T13:44:16.042Z,100406.59
2023-05-14T13:46:28.770Z,100397.21
2023-05-14T13:48:40.701Z,100396.17
2023-05-14T13:50:53.057Z,100394.95
2023-05-14T13:53:03.586Z,100389.02
2023-05-14T13:55:15.701Z,100387.48
2023-05-14T13:57:28.608Z,100390.31
2023-05-14T13:59:40.486Z,100386.42
2023-05-14T14:01:52.351Z,100377.58
2023-05-14T14:04:05.586Z,100374.08
2023-05-14T14:06:19.749Z,100369.66
2023-05-14T14:08:40.045Z,100363.8
2023-05-14T14:10:56.506Z,100364.48
2023-05-14T14:13:11.666Z,100363.56
2023-05-14T14:15:25.274Z,100361.32
2023-05-14T14:17:44.061Z,100353.02
2023-05-14T14:19:58.225Z,100348.02
2023-05-14T14:22:16.567Z,100349.3
2023-05-14T14:24:37.982Z,100343.66
2023-05-14T14:27:00.744Z,100341.5
2023-05-14T14:29:12.908Z,100342.95
2023-05-14T14:34:32.995Z,100341.04
2023-05-14T14:36:47.298Z,100342
2023-05-14T14:39:01.214Z,100338.92
2023-05-14T14:41:12.807Z,100343.48
2023-05-14T14:43:25.590Z,100342.7
2023-05-14T14:45:40.239Z,100343.48
2023-05-14T14:47:55.903Z,100322.99
2023-05-14T14:50:14.634Z,100338.89
2023-05-14T14:52:28.609Z,100325.7
2023-05-14T14:54:42.135Z,100329.79
2023-05-14T14:56:56.294Z,100324.45
2023-05-14T14:59:08.859Z,100326.48
2023-05-14T15:01:22.505Z,100322.66
2023-05-14T15:03:37.243Z,100323.05
2023-05-14T15:05:51.495Z,100325.6
2023-05-14T15:08:04.036Z,100314.94
2023-05-14T15:10:16.282Z,100314.17
2023-05-14T15:12:33.654Z,100305.91
2023-05-14T15:14:56.997Z,100312.05
2023-05-14T15:17:10.070Z,100310.33
2023-05-14T15:19:21.858Z,100308.48
2023-05-14T15:21:36.203Z,100308.04
2023-05-14T15:23:49.655Z,100306.18
2023-05-14T15:26:03.915Z,100310.7
2023-05-14T15:28:19.195Z,100316.64
2023-05-14T15:30:30.675Z,100311.55
2023-05-14T15:32:44.976Z,100310.75
2023-05-14T15:34:57.575Z,100314.64
2023-05-14T15:37:38.117Z,100311.94
2023-05-14T15:39:53.697Z,100300.11
2023-05-14T15:42:14.313Z,100297.99
2023-05-14T15:44:28.113Z,100298.2
2023-05-14T15:46:42.301Z,100295.36
2023-05-14T15:48:54.915Z,100295.08
2023-05-14T15:51:07.814Z,100292.52
2023-05-14T15:53:23.570Z,100291.19
2023-05-14T15:55:39.931Z,100293.53
2023-05-14T15:57:59.055Z,100279.6
2023-05-14T16:00:12.311Z,100280.89
2023-05-14T16:02:28.905Z,100282.33
2023-05-14T16:04:44.074Z,100291.36
2023-05-14T16:07:11.309Z,100276.67
2023-05-14T16:09:23.110Z,100277.53
2023-05-14T16:11:37.128Z,100273.98
2023-05-14T16:13:54.914Z,100273.06
2023-05-14T16:16:06.570Z,100266.7
2023-05-14T16:18:22.152Z,100264.75
2023-05-14T16:20:36.734Z,100261.28
2023-05-14T16:22:49.082Z,100261.88
2023-05-14T16:25:06.037Z,100256.47
2023-05-14T16:27:19.137Z,100250.36
2023-05-14T16:29:44.461Z,100254.42
2023-05-14T16:31:57.811Z,100257.42
2023-05-14T16:34:10.212Z,100245.03
2023-05-14T16:36:30.009Z,100246.55
2023-05-14T16:39:07.055Z,100248.16
2023-05-14T16:41:23.773Z,100242.67
2023-05-14T16:43:37.659Z,100237.85
2023-05-14T16:45:58.543Z,100243.63
2023-05-14T16:48:21.047Z,100234.98
2023-05-14T16:50:36.288Z,100235.4
2023-05-14T16:52:48.160Z,100227.29
2023-05-14T16:55:00.875Z,100228.27
2023-05-14T16:57:14.302Z,100228.13
2023-05-14T16:59:28.601Z,100231.92
2023-05-14T17:01:52.327Z,100229.98
2023-05-14T17:04:05.442Z,100234.42
2023-05-14T17:06:18.123Z,100233.58
2023-05-14T17:08:30.720Z,100240.19
2023-05-14T17:10:43.196Z,100244.95
2023-05-14T17:12:59.582Z,100241.16
2023-05-14T17:15:12.687Z,100238.28
2023-05-14T17:17:29.219Z,100238.81
2023-05-14T17:19:44.128Z,100237.86
2023-05-14T17:21:58.493Z,100232.05
2023-05-14T17:24:15.583Z,100229.69
2023-05-14T17:26:29.405Z,100227.86
2023-05-14T17:28:42.496Z,100226.18
2023-05-14T17:30:57.272Z,100230.98
2023-05-14T17:33:19.680Z,100228.72
2023-05-14T17:35:42.798Z,100229.71
2023-05-14T17:38:02.759Z,100229.11
2023-05-14T17:40:16.238Z,100231.69
2023-05-14T17:42:33.916Z,100225.17
2023-05-14T17:44:45.947Z,100223.05
2023-05-14T17:46:57.776Z,100224.05
2023-05-14T17:49:12.400Z,100220.75
2023-05-14T17:51:28.023Z,100223.13
2023-05-14T17:53:39.926Z,100223.3
2023-05-14T17:55:56.368Z,100221.03
2023-05-14T17:58:12.431Z,100218.17
2023-05-14T18:00:27.253Z,100220.05
2023-05-14T18:02:39.254Z,100216.18
2023-05-14T18:04:53.438Z,100212.16
2023-05-14T18:07:06.799Z,100212.41
2023-05-14T18:09:18.142Z,100211.3
2023-05-14T18:11:31.460Z,100216.5
2023-05-14T18:13:44.725Z,100217.48
2023-05-14T18:15:58.623Z,100217.33
2023-05-14T18:18:10.789Z,100214.11
2023-05-14T18:20:23.738Z,100214.45
2023-05-14T18:22:36.182Z,100212.34
2023-05-14T18:24:50.141Z,100216.19
2023-05-14T18:27:05.984Z,100217.2
2023-05-14T18:29:20.802Z,100216.38
2023-05-14T18:31:33.934Z,100217.52
2023-05-14T18:33:49.419Z,100215.25
2023-05-14T18:36:03.101Z,100217.47
2023-05-14T18:38:16.639Z,100219.7
2023-05-14T18:40:32.257Z,100213.75
2023-05-14T18:42:45.687Z,100216.77
2023-05-14T18:44:58.944Z,100213.23
2023-05-14T18:47:14.529Z,100208.02
2023-05-14T18:49:27.301Z,100210.39
2023-05-14T18:51:42.523Z,100219.34
2023-05-14T18:53:57.624Z,100213.34
2023-05-14T18:56:12.281Z,100217.64
2023-05-14T18:58:26.780Z,100216.56
2023-05-14T19:00:42.640Z,100213.49
2023-05-14T19:03:03.736Z,100214.66
2023-05-14T19:05:16.988Z,100209.96
2023-05-14T19:07:30.336Z,100207.36
2023-05-14T19:09:44.643Z,100202.66
2023-05-14T19:11:59.659Z,100197.39
2023-05-14T19:14:12.797Z,100195.34
2023-05-14T19:16:25.600Z,100189.85
2023-05-14T19:18:39.357Z,100190.55
2023-05-14T19:20:54.787Z,100188.7
2023-05-14T19:23:08.267Z,100190.53
2023-05-14T19:25:23.067Z,100196.69
2023-05-14T19:27:38.602Z,100189.23
2023-05-14T19:29:52.201Z,100186.79
2023-05-14T19:32:06.816Z,100184.88
2023-05-14T19:34:23.117Z,100181.88
2023-05-14T19:36:36.374Z,100185.48
2023-05-14T19:38:49.536Z,100184.59
2023-05-14T19:41:03.157Z,100185.8
2023-05-14T19:43:15.696Z,100182.77
2023-05-14T19:45:29.474Z,100182.59
2023-05-14T19:47:43.213Z,100180.41
2023-05-14T19:49:59.857Z,100178.68
2023-05-14T19:52:16.738Z,100178.47
2023-05-14T19:54:39.542Z,100180.08
2023-05-14T19:56:54.535Z,100180.52
2023-05-14T19:59:09.476Z,100183.44
2023-05-14T20:01:23.396Z,100182.34
2023-05-14T20:03:42.424Z,100178.83
2023-05-14T20:05:55.202Z,100178.07
2023-05-14T20:08:08.835Z,100183.14
2023-05-14T20:10:22.105Z,100177.41
2023-05-14T20:12:37.294Z,100171.92
2023-05-14T20:14:54.094Z,100169.56
2023-05-14T20:17:08.829Z,100163.45
2023-05-14T20:19:25.138Z,100163.2
2023-05-14T20:21:38.138Z,100159.23
2023-05-14T20:23:52.383Z,100159.18
2023-05-14T20:26:05.580Z,100156.36
2023-05-14T20:28:21.696Z,100155.09
2023-05-14T20:30:37.249Z,100155.3
2023-05-14T20:32:49.391Z,100152.55
2023-05-14T20:35:02.324Z,100151.96
2023-05-14T20:37:16.278Z,100150.23
2023-05-14T20:39:30.437Z,100145.63
2023-05-14T20:41:43.617Z,100145.3
2023-05-14T20:43:56.776Z,100136.41
2023-05-14T20:46:08.466Z,100134.55
2023-05-14T20:48:21.148Z,100133.39
2023-05-14T20:50:34.284Z,100133.44
2023-05-14T20:52:49.834Z,100129.08
2023-05-14T20:55:05.734Z,100124.67
2023-05-14T20:57:20.144Z,100119.63
2023-05-14T20:59:36.239Z,100121.19
2023-05-14T21:01:48.482Z,100118.89
2023-05-14T21:04:04.552Z,100116.07
2023-05-14T21:06:17.160Z,100116.99
2023-05-14T21:08:32.678Z,100116.2
2023-05-14T21:10:48.242Z,100114.91
2023-05-14T21:13:03.794Z,100110.5
2023-05-14T21:15:18.017Z,100109.77
2023-05-14T21:17:33.459Z,100102.61
2023-05-14T21:19:47.418Z,100103.27
2023-05-14T21:22:01.537Z,100100.48
2023-05-14T21:24:15.816Z,100103.72
2023-05-14T21:26:27.498Z,100097.78
2023-05-14T21:28:39.182Z,100101.84
2023-05-14T21:30:51.882Z,100094.97
2023-05-14T21:33:04.972Z,100094.63
2023-05-14T21:35:17.676Z,100094.43
2023-05-14T21:37:30.036Z,100094.85
2023-05-14T21:39:41.399Z,100093.19
2023-05-14T21:41:52.699Z,100092.16
2023-05-14T21:44:07.415Z,100088.38
2023-05-14T21:46:18.524Z,100090.39
2023-05-14T21:48:31.319Z,100084.38
2023-05-14T21:50:43.376Z,100083.16
2023-05-14T21:52:56.559Z,100084.59
2023-05-14T21:55:09.078Z,100079.58
2023-05-14T21:57:20.914Z,100075.22
2023-05-14T21:59:35.648Z,100073.08
2023-05-14T22:02:09.266Z,100067.7
2023-05-14T22:04:22.502Z,100063.05
2023-05-14T22:06:38.159Z,100066.29
2023-05-14T22:08:50.254Z,100066.22
2023-05-14T22:11:05.463Z,100060.94
2023-05-14T22:13:17.585Z,100058.89
2023-05-14T22:15:28.280Z,100058.97
2023-05-14T22:17:39.161Z,100054.06
2023-05-14T22:19:50.851Z,100056.8
2023-05-14T22:22:03.657Z,100052.16
2023-05-14T22:24:19.976Z,100047.09
2023-05-14T22:26:34.994Z,100043.46
2023-05-14T22:28:49.681Z,100042.12
2023-05-14T22:31:05.237Z,100041.65
2023-05-14T22:33:18.477Z,100037.55
2023-05-14T22:35:30.853Z,100037.52
2023-05-14T22:37:42.454Z,100031.46
2023-05-14T22:39:52.955Z,100029.14
2023-05-14T22:42:03.753Z,100023.49
2023-05-14T22:44:14.794Z,100021.19
2023-05-14T22:46:27.605Z,100016.45
2023-05-14T22:48:41.056Z,100013.19
2023-05-14T22:50:55.297Z,100012.4
2023-05-14T22:53:08.554Z,100006.09
2023-05-14T22:55:21.226Z,100002.08
2023-05-14T22:57:32.973Z,100004.84
2023-05-14T22:59:48.325Z,100001.73
2023-05-14T23:01:59.589Z,100001.37
2023-05-14T23:04:12.466Z,99999.66
2023-05-14T23:06:25.123Z,99992.55
2023-05-14T23:08:39.677Z,99988
2023-05-14T23:10:49.973Z,99987.22
2023-05-14T23:13:02.293Z,99982.97
2023-05-14T23:15:13.676Z,99979.22
2023-05-14T23:17:24.533Z,99977.41
2023-05-14T23:19:35.340Z,99973.8
2023-05-14T23:21:47.030Z,99972.97
2023-05-14T23:23:57.052Z,99971.13
2023-05-14T23:26:07.892Z,99971.73
2023-05-14T23:28:18.274Z,99969.08
2023-05-14T23:30:28.176Z,99963.88
2023-05-14T23:32:39.518Z,99962.23
2023-05-14T23:34:50.535Z,99956.54
2023-05-14T23:37:00.986Z,99949.92
2023-05-14T23:39:11.530Z,99947.39
2023-05-14T23:41:24.288Z,99947.11
2023-05-14T23:43:35.411Z,99945.58
2023-05-14T23:45:45.881Z,99945.39
2023-05-14T23:47:56.975Z,99944.02
2023-05-14T23:50:07.772Z,99939.97
2023-05-14T23:52:18.010Z,99938.83
2023-05-14T23:54:28.751Z,99934.5
2023-05-14T23:56:39.226Z,99935.44
2023-05-14T23:58:49.570Z,99933.25
